Alsey, Illinois
Current Conditions -  °F | °C
As of 3:15 PM on Monday 24 Nov 2014 (Local Time) from KIJX Reporting Station
Overcast Overcast  
Wind Chill: 27°   Ceiling: 3000
Heat Index: 37°   Visibility: 10mi
Dew Point: 28°   Wind: 16mph
Humidity: 69%   Direction: 250°WSW
Pressure: 29.75"   Gusts: 29mph
Location:  39.56°N, 90.43°W
Report Text: KIJX 242115Z AUTO 25014G25KT 10SM OVC030 03/M02 A2975 RMK AO2 T00261025
Loading
Personal Weather Stations






























Interactive Weather Map New forecast layout! Learn more

10-Day Weather Forecast

Advertisements
Track Severe Weather on mobile